sensor_id;sensor_type;location;lat;lon;timestamp;temperature;humidity
48264;DHT22;34086;51.076;13.722;2023-02-15T00:00:48;0.70;99.90
48264;DHT22;34086;51.076;13.722;2023-02-15T00:01:49;0.60;99.90
48264;DHT22;34086;51.076;13.722;2023-02-15T00:02:49;0.70;99.90
48264;DHT22;34086;51.076;13.722;2023-02-15T00:03:50;0.60;99.90
48264;DHT22;34086;51.076;13.722;2023-02-15T00:04:51;0.60;99.90
48264;DHT22;34086;51.076;13.722;2023-02-15T00:05:52;0.60;99.90
48264;DHT22;34086;51.076;13.722;2023-02-15T00:06:52;0.60;99.90
48264;DHT22;34086;51.076;13.722;2023-02-15T00:07:53;0.60;99.90
48264;DHT22;34086;51.076;13.722;2023-02-15T00:08:54;0.60;99.90
48264;DHT22;34086;51.076;13.722;2023-02-15T00:09:55;0.60;99.90
48264;DHT22;34086;51.076;13.722;2023-02-15T00:11:06;0.60;99.90
48264;DHT22;34086;51.076;13.722;2023-02-15T00:12:09;0.60;99.90
48264;DHT22;34086;51.076;13.722;2023-02-15T00:13:09;0.60;99.90
48264;DHT22;34086;51.076;13.722;2023-02-15T00:15:15;0.50;99.90
48264;DHT22;34086;51.076;13.722;2023-02-15T00:16:15;0.50;99.90
48264;DHT22;34086;51.076;13.722;2023-02-15T00:17:16;0.50;99.90
48264;DHT22;34086;51.076;13.722;2023-02-15T00:18:16;0.50;99.90
48264;DHT22;34086;51.076;13.722;2023-02-15T00:19:20;0.50;99.90
48264;DHT22;34086;51.076;13.722;2023-02-15T00:20:21;0.50;99.90
48264;DHT22;34086;51.076;13.722;2023-02-15T00:21:22;0.50;99.90
48264;DHT22;34086;51.076;13.722;2023-02-15T00:22:22;0.50;99.90
48264;DHT22;34086;51.076;13.722;2023-02-15T00:23:23;0.50;99.90
48264;DHT22;34086;51.076;13.722;2023-02-15T00:24:23;0.50;99.90
48264;DHT22;34086;51.076;13.722;2023-02-15T00:25:24;0.50;99.90
48264;DHT22;34086;51.076;13.722;2023-02-15T00:26:25;0.50;99.90
48264;DHT22;34086;51.076;13.722;2023-02-15T00:27:25;0.50;99.90
48264;DHT22;34086;51.076;13.722;2023-02-15T00:28:26;0.40;99.90
48264;DHT22;34086;51.076;13.722;2023-02-15T00:29:27;0.40;99.90
48264;DHT22;34086;51.076;13.722;2023-02-15T00:30:28;0.40;99.90
48264;DHT22;34086;51.076;13.722;2023-02-15T00:31:30;0.40;99.90
48264;DHT22;34086;51.076;13.722;2023-02-15T00:32:32;0.40;99.90
48264;DHT22;34086;51.076;13.722;2023-02-15T00:33:32;0.40;99.90
48264;DHT22;34086;51.076;13.722;2023-02-15T00:34:33;0.40;99.90
48264;DHT22;34086;51.076;13.722;2023-02-15T00:35:33;0.40;99.90
48264;DHT22;34086;51.076;13.722;2023-02-15T00:36:34;0.40;99.90
48264;DHT22;34086;51.076;13.722;2023-02-15T00:37:35;0.40;99.90
48264;DHT22;34086;51.076;13.722;2023-02-15T00:38:37;0.40;99.90
48264;DHT22;34086;51.076;13.722;2023-02-15T00:39:37;0.40;99.90
48264;DHT22;34086;51.076;13.722;2023-02-15T00:40:40;0.40;99.90
48264;DHT22;34086;51.076;13.722;2023-02-15T00:41:40;0.40;99.90
48264;DHT22;34086;51.076;13.722;2023-02-15T00:42:41;0.40;99.90
48264;DHT22;34086;51.076;13.722;2023-02-15T00:43:42;0.30;99.90
48264;DHT22;34086;51.076;13.722;2023-02-15T00:44:43;0.30;99.90
48264;DHT22;34086;51.076;13.722;2023-02-15T00:45:45;0.30;99.90
48264;DHT22;34086;51.076;13.722;2023-02-15T00:46:46;0.30;99.90
48264;DHT22;34086;51.076;13.722;2023-02-15T00:47:46;0.30;99.90
48264;DHT22;34086;51.076;13.722;2023-02-15T00:48:47;0.30;99.90
48264;DHT22;34086;51.076;13.722;2023-02-15T00:49:47;0.30;99.90
48264;DHT22;34086;51.076;13.722;2023-02-15T00:50:54;0.30;99.90
48264;DHT22;34086;51.076;13.722;2023-02-15T00:51:54;0.30;99.90
48264;DHT22;34086;51.076;13.722;2023-02-15T00:52:55;0.30;99.90
48264;DHT22;34086;51.076;13.722;2023-02-15T00:53:56;0.30;99.90
48264;DHT22;34086;51.076;13.722;2023-02-15T00:54:56;0.30;99.90
48264;DHT22;34086;51.076;13.722;2023-02-15T00:55:58;0.30;99.90
48264;DHT22;34086;51.076;13.722;2023-02-15T00:56:58;0.30;99.90
48264;DHT22;34086;51.076;13.722;2023-02-15T00:57:59;0.30;99.90
48264;DHT22;34086;51.076;13.722;2023-02-15T00:58:59;0.30;99.90
48264;DHT22;34086;51.076;13.722;2023-02-15T01:00:00;0.30;99.90
48264;DHT22;34086;51.076;13.722;2023-02-15T01:01:15;0.30;99.90
48264;DHT22;34086;51.076;13.722;2023-02-15T01:02:16;0.30;99.90
48264;DHT22;34086;51.076;13.722;2023-02-15T01:03:18;0.30;99.90
48264;DHT22;34086;51.076;13.722;2023-02-15T01:04:19;0.30;99.90
48264;DHT22;34086;51.076;13.722;2023-02-15T01:05:19;0.30;99.90
48264;DHT22;34086;51.076;13.722;2023-02-15T01:06:20;0.30;99.90
48264;DHT22;34086;51.076;13.722;2023-02-15T01:07:21;0.30;99.90
48264;DHT22;34086;51.076;13.722;2023-02-15T01:08:22;0.30;99.90
48264;DHT22;34086;51.076;13.722;2023-02-15T01:09:22;0.20;99.90
48264;DHT22;34086;51.076;13.722;2023-02-15T01:10:23;0.20;99.90
48264;DHT22;34086;51.076;13.722;2023-02-15T01:11:23;0.20;99.90
48264;DHT22;34086;51.076;13.722;2023-02-15T01:12:27;0.20;99.90
48264;DHT22;34086;51.076;13.722;2023-02-15T01:13:27;0.30;99.90
48264;DHT22;34086;51.076;13.722;2023-02-15T01:14:28;0.20;99.90
48264;DHT22;34086;51.076;13.722;2023-02-15T01:15:29;0.20;99.90
48264;DHT22;34086;51.076;13.722;2023-02-15T01:16:29;0.20;99.90
48264;DHT22;34086;51.076;13.722;2023-02-15T01:17:31;0.20;99.90
48264;DHT22;34086;51.076;13.722;2023-02-15T01:18:33;0.20;99.90
48264;DHT22;34086;51.076;13.722;2023-02-15T01:19:33;0.20;99.90
48264;DHT22;34086;51.076;13.722;2023-02-15T01:20:36;0.20;99.90
48264;DHT22;34086;51.076;13.722;2023-02-15T01:21:39;0.20;99.90
48264;DHT22;34086;51.076;13.722;2023-02-15T01:22:40;0.20;99.90
48264;DHT22;34086;51.076;13.722;2023-02-15T01:23:42;0.20;99.90
48264;DHT22;34086;51.076;13.722;2023-02-15T01:24:42;0.20;99.90
48264;DHT22;34086;51.076;13.722;2023-02-15T01:25:43;0.20;99.90
48264;DHT22;34086;51.076;13.722;2023-02-15T01:26:44;0.20;99.90
48264;DHT22;34086;51.076;13.722;2023-02-15T01:27:45;0.20;99.90
48264;DHT22;34086;51.076;13.722;2023-02-15T01:28:47;0.20;99.90
48264;DHT22;34086;51.076;13.722;2023-02-15T01:29:47;0.20;99.90
48264;DHT22;34086;51.076;13.722;2023-02-15T01:30:52;0.20;99.90
48264;DHT22;34086;51.076;13.722;2023-02-15T01:31:52;0.20;99.90
48264;DHT22;34086;51.076;13.722;2023-02-15T01:32:53;0.20;99.90
48264;DHT22;34086;51.076;13.722;2023-02-15T01:33:53;0.20;99.90
48264;DHT22;34086;51.076;13.722;2023-02-15T01:34:54;0.20;99.90
48264;DHT22;34086;51.076;13.722;2023-02-15T01:35:58;0.20;99.90
48264;DHT22;34086;51.076;13.722;2023-02-15T01:36:59;0.20;99.90
48264;DHT22;34086;51.076;13.722;2023-02-15T01:37:59;0.20;99.90
48264;DHT22;34086;51.076;13.722;2023-02-15T01:39:01;0.20;99.90
48264;DHT22;34086;51.076;13.722;2023-02-15T01:40:03;0.20;99.90
48264;DHT22;34086;51.076;13.722;2023-02-15T01:41:05;0.20;99.90
48264;DHT22;34086;51.076;13.722;2023-02-15T01:42:22;0.20;99.90
48264;DHT22;34086;51.076;13.722;2023-02-15T01:43:39;0.20;99.90
48264;DHT22;34086;51.076;13.722;2023-02-15T01:44:55;0.20;99.90
48264;DHT22;34086;51.076;13.722;2023-02-15T01:45:58;0.30;99.90
48264;DHT22;34086;51.076;13.722;2023-02-15T01:47:00;0.30;99.90
48264;DHT22;34086;51.076;13.722;2023-02-15T01:48:08;0.30;99.90
48264;DHT22;34086;51.076;13.722;2023-02-15T01:49:16;0.40;99.90
48264;DHT22;34086;51.076;13.722;2023-02-15T01:50:39;0.40;99.90
48264;DHT22;34086;51.076;13.722;2023-02-15T01:51:43;0.40;99.90
48264;DHT22;34086;51.076;13.722;2023-02-15T01:53:04;0.40;99.90
48264;DHT22;34086;51.076;13.722;2023-02-15T01:54:19;0.50;99.90
48264;DHT22;34086;51.076;13.722;2023-02-15T01:55:24;0.50;99.90
48264;DHT22;34086;51.076;13.722;2023-02-15T01:56:29;0.40;99.90
48264;DHT22;34086;51.076;13.722;2023-02-15T01:57:31;0.50;99.90
48264;DHT22;34086;51.076;13.722;2023-02-15T01:58:32;0.50;99.90
48264;DHT22;34086;51.076;13.722;2023-02-15T01:59:35;0.50;99.90
48264;DHT22;34086;51.076;13.722;2023-02-15T02:00:37;0.50;99.90
48264;DHT22;34086;51.076;13.722;2023-02-15T02:01:38;0.50;99.90
48264;DHT22;34086;51.076;13.722;2023-02-15T02:02:41;0.50;99.90
48264;DHT22;34086;51.076;13.722;2023-02-15T02:05:12;0.50;99.90
48264;DHT22;34086;51.076;13.722;2023-02-15T02:06:13;0.60;99.90
48264;DHT22;34086;51.076;13.722;2023-02-15T02:07:16;0.60;99.90
48264;DHT22;34086;51.076;13.722;2023-02-15T02:08:17;0.60;99.90
48264;DHT22;34086;51.076;13.722;2023-02-15T02:09:18;0.60;99.90
48264;DHT22;34086;51.076;13.722;2023-02-15T02:10:21;0.60;99.90
48264;DHT22;34086;51.076;13.722;2023-02-15T02:11:25;0.60;99.90
48264;DHT22;34086;51.076;13.722;2023-02-15T02:12:26;0.60;99.90
48264;DHT22;34086;51.076;13.722;2023-02-15T02:13:27;0.60;99.90
48264;DHT22;34086;51.076;13.722;2023-02-15T02:14:28;0.60;99.90
48264;DHT22;34086;51.076;13.722;2023-02-15T02:15:53;0.60;99.90
48264;DHT22;34086;51.076;13.722;2023-02-15T02:17:05;0.60;99.90
48264;DHT22;34086;51.076;13.722;2023-02-15T02:20:25;0.70;99.90
48264;DHT22;34086;51.076;13.722;2023-02-15T02:23:23;0.70;99.90
48264;DHT22;34086;51.076;13.722;2023-02-15T02:24:36;0.80;99.90
48264;DHT22;34086;51.076;13.722;2023-02-15T02:30:47;0.70;99.90
48264;DHT22;34086;51.076;13.722;2023-02-15T02:33:41;0.80;99.90
48264;DHT22;34086;51.076;13.722;2023-02-15T02:40:13;0.80;99.90
48264;DHT22;34086;51.076;13.722;2023-02-15T02:42:38;0.80;99.90
48264;DHT22;34086;51.076;13.722;2023-02-15T02:43:49;0.70;99.90
48264;DHT22;34086;51.076;13.722;2023-02-15T02:46:17;0.70;99.90
48264;DHT22;34086;51.076;13.722;2023-02-15T02:47:26;0.70;99.90
48264;DHT22;34086;51.076;13.722;2023-02-15T02:48:32;0.70;99.90
48264;DHT22;34086;51.076;13.722;2023-02-15T02:49:34;0.70;99.90
48264;DHT22;34086;51.076;13.722;2023-02-15T02:50:35;0.70;99.90
48264;DHT22;34086;51.076;13.722;2023-02-15T02:51:35;0.70;99.90
48264;DHT22;34086;51.076;13.722;2023-02-15T02:52:47;0.70;99.90
48264;DHT22;34086;51.076;13.722;2023-02-15T02:53:51;0.70;99.90
48264;DHT22;34086;51.076;13.722;2023-02-15T02:54:54;0.70;99.90
48264;DHT22;34086;51.076;13.722;2023-02-15T02:56:24;0.70;99.90
48264;DHT22;34086;51.076;13.722;2023-02-15T02:57:27;0.70;99.90
48264;DHT22;34086;51.076;13.722;2023-02-15T02:58:42;0.70;99.90
48264;DHT22;34086;51.076;13.722;2023-02-15T02:59:46;0.70;99.90
48264;DHT22;34086;51.076;13.722;2023-02-15T03:00:57;0.70;99.90
48264;DHT22;34086;51.076;13.722;2023-02-15T03:02:13;0.70;99.90
48264;DHT22;34086;51.076;13.722;2023-02-15T03:03:26;0.80;99.90
48264;DHT22;34086;51.076;13.722;2023-02-15T03:04:32;0.80;99.90
48264;DHT22;34086;51.076;13.722;2023-02-15T03:05:40;0.70;99.90
48264;DHT22;34086;51.076;13.722;2023-02-15T03:07:00;0.70;99.90
48264;DHT22;34086;51.076;13.722;2023-02-15T03:08:03;0.70;99.90
48264;DHT22;34086;51.076;13.722;2023-02-15T03:09:11;0.70;99.90
48264;DHT22;34086;51.076;13.722;2023-02-15T03:10:23;0.60;99.90
48264;DHT22;34086;51.076;13.722;2023-02-15T03:11:24;0.60;99.90
48264;DHT22;34086;51.076;13.722;2023-02-15T03:12:43;0.60;99.90
48264;DHT22;34086;51.076;13.722;2023-02-15T03:13:46;0.60;99.90
48264;DHT22;34086;51.076;13.722;2023-02-15T03:15:01;0.60;99.90
48264;DHT22;34086;51.076;13.722;2023-02-15T03:16:05;0.60;99.90
48264;DHT22;34086;51.076;13.722;2023-02-15T03:17:27;0.60;99.90
48264;DHT22;34086;51.076;13.722;2023-02-15T03:18:35;0.60;99.90
48264;DHT22;34086;51.076;13.722;2023-02-15T03:19:37;0.60;99.90
48264;DHT22;34086;51.076;13.722;2023-02-15T03:20:39;0.60;99.90
48264;DHT22;34086;51.076;13.722;2023-02-15T03:21:51;0.60;99.90
48264;DHT22;34086;51.076;13.722;2023-02-15T03:23:12;0.60;99.90
48264;DHT22;34086;51.076;13.722;2023-02-15T03:24:16;0.60;99.90
48264;DHT22;34086;51.076;13.722;2023-02-15T03:25:39;0.60;99.90
48264;DHT22;34086;51.076;13.722;2023-02-15T03:26:44;0.60;99.90
48264;DHT22;34086;51.076;13.722;2023-02-15T03:27:49;0.50;99.90
48264;DHT22;34086;51.076;13.722;2023-02-15T03:28:53;0.50;99.90
48264;DHT22;34086;51.076;13.722;2023-02-15T03:29:58;0.50;99.90
48264;DHT22;34086;51.076;13.722;2023-02-15T03:31:02;0.50;99.90
48264;DHT22;34086;51.076;13.722;2023-02-15T03:32:07;0.50;99.90
48264;DHT22;34086;51.076;13.722;2023-02-15T03:33:09;0.50;99.90
48264;DHT22;34086;51.076;13.722;2023-02-15T03:34:12;0.50;99.90
48264;DHT22;34086;51.076;13.722;2023-02-15T03:35:15;0.50;99.90
48264;DHT22;34086;51.076;13.722;2023-02-15T03:37:57;0.50;99.90
48264;DHT22;34086;51.076;13.722;2023-02-15T03:40:14;0.40;99.90
48264;DHT22;34086;51.076;13.722;2023-02-15T03:41:40;0.40;99.90
48264;DHT22;34086;51.076;13.722;2023-02-15T03:42:43;0.40;99.90
48264;DHT22;34086;51.076;13.722;2023-02-15T03:43:51;0.40;99.90
48264;DHT22;34086;51.076;13.722;2023-02-15T03:45:08;0.40;99.90
48264;DHT22;34086;51.076;13.722;2023-02-15T03:46:14;0.40;99.90
48264;DHT22;34086;51.076;13.722;2023-02-15T03:47:20;0.40;99.90
48264;DHT22;34086;51.076;13.722;2023-02-15T03:48:26;0.40;99.90
48264;DHT22;34086;51.076;13.722;2023-02-15T03:50:38;0.40;99.90
48264;DHT22;34086;51.076;13.722;2023-02-15T03:51:59;0.30;99.90
48264;DHT22;34086;51.076;13.722;2023-02-15T03:53:02;0.30;99.90
48264;DHT22;34086;51.076;13.722;2023-02-15T03:54:29;0.30;99.90
48264;DHT22;34086;51.076;13.722;2023-02-15T03:55:48;0.30;99.90
48264;DHT22;34086;51.076;13.722;2023-02-15T03:56:49;0.30;99.90
48264;DHT22;34086;51.076;13.722;2023-02-15T03:58:10;0.30;99.90
48264;DHT22;34086;51.076;13.722;2023-02-15T03:59:29;0.20;99.90
48264;DHT22;34086;51.076;13.722;2023-02-15T04:00:57;0.20;99.90
48264;DHT22;34086;51.076;13.722;2023-02-15T04:02:22;0.20;99.90
48264;DHT22;34086;51.076;13.722;2023-02-15T04:03:43;0.20;99.90
48264;DHT22;34086;51.076;13.722;2023-02-15T04:04:47;0.10;99.90
48264;DHT22;34086;51.076;13.722;2023-02-15T04:05:47;0.10;99.90
48264;DHT22;34086;51.076;13.722;2023-02-15T04:06:48;0.10;99.90
48264;DHT22;34086;51.076;13.722;2023-02-15T04:07:49;0.10;99.90
48264;DHT22;34086;51.076;13.722;2023-02-15T04:08:49;0.10;99.90
48264;DHT22;34086;51.076;13.722;2023-02-15T04:10:09;0.10;99.90
48264;DHT22;34086;51.076;13.722;2023-02-15T04:11:28;0.00;99.90
48264;DHT22;34086;51.076;13.722;2023-02-15T04:12:29;0.00;99.90
48264;DHT22;34086;51.076;13.722;2023-02-15T04:13:31;0.00;99.90
48264;DHT22;34086;51.076;13.722;2023-02-15T04:14:32;0.00;99.90
48264;DHT22;34086;51.076;13.722;2023-02-15T04:15:53;0.00;99.90
48264;DHT22;34086;51.076;13.722;2023-02-15T04:17:06;0.00;99.90
48264;DHT22;34086;51.076;13.722;2023-02-15T04:18:07;-0.10;99.90
48264;DHT22;34086;51.076;13.722;2023-02-15T04:19:07;-0.10;99.90
48264;DHT22;34086;51.076;13.722;2023-02-15T04:20:27;-0.10;99.90
48264;DHT22;34086;51.076;13.722;2023-02-15T04:21:46;-0.20;99.90
48264;DHT22;34086;51.076;13.722;2023-02-15T04:23:06;-0.20;99.90
48264;DHT22;34086;51.076;13.722;2023-02-15T04:24:25;-0.20;99.90
48264;DHT22;34086;51.076;13.722;2023-02-15T04:25:44;-0.20;99.90
48264;DHT22;34086;51.076;13.722;2023-02-15T04:26:45;-0.20;99.90
48264;DHT22;34086;51.076;13.722;2023-02-15T04:27:49;-0.30;99.90
48264;DHT22;34086;51.076;13.722;2023-02-15T04:28:50;-0.30;99.90
48264;DHT22;34086;51.076;13.722;2023-02-15T04:29:51;-0.30;99.90
48264;DHT22;34086;51.076;13.722;2023-02-15T04:30:51;-0.30;99.90
48264;DHT22;34086;51.076;13.722;2023-02-15T04:31:53;-0.30;99.90
48264;DHT22;34086;51.076;13.722;2023-02-15T04:32:54;-0.30;99.90
48264;DHT22;34086;51.076;13.722;2023-02-15T04:33:57;-0.30;99.90
48264;DHT22;34086;51.076;13.722;2023-02-15T04:34:57;-0.30;99.90
48264;DHT22;34086;51.076;13.722;2023-02-15T04:35:58;-0.30;99.90
48264;DHT22;34086;51.076;13.722;2023-02-15T04:36:58;-0.30;99.90
48264;DHT22;34086;51.076;13.722;2023-02-15T04:37:59;-0.30;99.90
48264;DHT22;34086;51.076;13.722;2023-02-15T04:39:00;-0.40;99.90
48264;DHT22;34086;51.076;13.722;2023-02-15T04:40:00;-0.40;99.90
48264;DHT22;34086;51.076;13.722;2023-02-15T04:41:01;-0.40;99.90
48264;DHT22;34086;51.076;13.722;2023-02-15T04:42:02;-0.40;99.90
48264;DHT22;34086;51.076;13.722;2023-02-15T04:43:02;-0.40;99.90
48264;DHT22;34086;51.076;13.722;2023-02-15T04:44:03;-0.40;99.90
48264;DHT22;34086;51.076;13.722;2023-02-15T04:45:04;-0.40;99.90
48264;DHT22;34086;51.076;13.722;2023-02-15T04:46:05;-0.40;99.90
48264;DHT22;34086;51.076;13.722;2023-02-15T04:47:05;-0.40;99.90
48264;DHT22;34086;51.076;13.722;2023-02-15T04:48:06;-0.40;99.90
48264;DHT22;34086;51.076;13.722;2023-02-15T04:49:08;-0.40;99.90
48264;DHT22;34086;51.076;13.722;2023-02-15T04:50:09;-0.40;99.90
48264;DHT22;34086;51.076;13.722;2023-02-15T04:51:10;-0.40;99.90
48264;DHT22;34086;51.076;13.722;2023-02-15T04:52:11;-0.40;99.90
48264;DHT22;34086;51.076;13.722;2023-02-15T04:53:11;-0.50;99.90
48264;DHT22;34086;51.076;13.722;2023-02-15T04:54:12;-0.50;99.90
48264;DHT22;34086;51.076;13.722;2023-02-15T04:55:13;-0.50;99.90
48264;DHT22;34086;51.076;13.722;2023-02-15T04:56:14;-0.40;99.90
48264;DHT22;34086;51.076;13.722;2023-02-15T04:57:15;-0.50;99.90
48264;DHT22;34086;51.076;13.722;2023-02-15T04:58:15;-0.50;99.90
48264;DHT22;34086;51.076;13.722;2023-02-15T04:59:16;-0.50;99.90
48264;DHT22;34086;51.076;13.722;2023-02-15T05:00:17;-0.40;99.90
48264;DHT22;34086;51.076;13.722;2023-02-15T05:01:18;-0.50;99.90
48264;DHT22;34086;51.076;13.722;2023-02-15T05:02:19;-0.50;99.90
48264;DHT22;34086;51.076;13.722;2023-02-15T05:03:19;-0.50;99.90
48264;DHT22;34086;51.076;13.722;2023-02-15T05:04:20;-0.50;99.90
48264;DHT22;34086;51.076;13.722;2023-02-15T05:05:20;-0.40;99.90
48264;DHT22;34086;51.076;13.722;2023-02-15T05:06:21;-0.50;99.90
48264;DHT22;34086;51.076;13.722;2023-02-15T05:07:22;-0.50;99.90
48264;DHT22;34086;51.076;13.722;2023-02-15T05:08:22;-0.50;99.90
48264;DHT22;34086;51.076;13.722;2023-02-15T05:09:23;-0.50;99.90
48264;DHT22;34086;51.076;13.722;2023-02-15T05:10:23;-0.50;99.90
48264;DHT22;34086;51.076;13.722;2023-02-15T05:11:24;-0.50;99.90
48264;DHT22;34086;51.076;13.722;2023-02-15T05:12:25;-0.50;99.90
48264;DHT22;34086;51.076;13.722;2023-02-15T05:13:25;-0.50;99.90
48264;DHT22;34086;51.076;13.722;2023-02-15T05:14:26;-0.50;99.90
48264;DHT22;34086;51.076;13.722;2023-02-15T05:15:26;-0.50;99.90
48264;DHT22;34086;51.076;13.722;2023-02-15T05:16:27;-0.50;99.90
48264;DHT22;34086;51.076;13.722;2023-02-15T05:17:28;-0.50;99.90
48264;DHT22;34086;51.076;13.722;2023-02-15T05:18:28;-0.50;99.90
48264;DHT22;34086;51.076;13.722;2023-02-15T05:19:29;-0.50;99.90
48264;DHT22;34086;51.076;13.722;2023-02-15T05:20:30;-0.40;99.90
48264;DHT22;34086;51.076;13.722;2023-02-15T05:21:31;-0.40;99.90
48264;DHT22;34086;51.076;13.722;2023-02-15T05:22:32;-0.50;99.90
48264;DHT22;34086;51.076;13.722;2023-02-15T05:23:32;-0.40;99.90
48264;DHT22;34086;51.076;13.722;2023-02-15T05:24:33;-0.40;99.90
48264;DHT22;34086;51.076;13.722;2023-02-15T05:25:52;-0.40;99.90
48264;DHT22;34086;51.076;13.722;2023-02-15T05:27:11;-0.40;99.90
48264;DHT22;34086;51.076;13.722;2023-02-15T05:28:33;-0.40;99.90
48264;DHT22;34086;51.076;13.722;2023-02-15T05:29:34;-0.40;99.90
48264;DHT22;34086;51.076;13.722;2023-02-15T05:30:34;-0.40;99.90
48264;DHT22;34086;51.076;13.722;2023-02-15T05:31:35;-0.40;99.90
48264;DHT22;34086;51.076;13.722;2023-02-15T05:32:36;-0.40;99.90
48264;DHT22;34086;51.076;13.722;2023-02-15T05:33:37;-0.40;99.90
48264;DHT22;34086;51.076;13.722;2023-02-15T05:34:38;-0.40;99.90
48264;DHT22;34086;51.076;13.722;2023-02-15T05:35:38;-0.40;99.90
48264;DHT22;34086;51.076;13.722;2023-02-15T05:36:39;-0.30;99.90
48264;DHT22;34086;51.076;13.722;2023-02-15T05:37:39;-0.30;99.90
48264;DHT22;34086;51.076;13.722;2023-02-15T05:38:40;-0.30;99.90
48264;DHT22;34086;51.076;13.722;2023-02-15T05:39:40;-0.30;99.90
48264;DHT22;34086;51.076;13.722;2023-02-15T05:40:41;-0.30;99.90
48264;DHT22;34086;51.076;13.722;2023-02-15T05:41:41;-0.20;99.90
48264;DHT22;34086;51.076;13.722;2023-02-15T05:42:42;-0.20;99.90
48264;DHT22;34086;51.076;13.722;2023-02-15T05:43:42;-0.20;99.90
48264;DHT22;34086;51.076;13.722;2023-02-15T05:44:43;-0.20;99.90
48264;DHT22;34086;51.076;13.722;2023-02-15T05:45:48;-0.10;99.90
48264;DHT22;34086;51.076;13.722;2023-02-15T05:46:48;-0.10;99.90
48264;DHT22;34086;51.076;13.722;2023-02-15T05:47:49;-0.10;99.90
48264;DHT22;34086;51.076;13.722;2023-02-15T05:48:49;-0.10;99.90
48264;DHT22;34086;51.076;13.722;2023-02-15T05:49:50;0.00;99.90
48264;DHT22;34086;51.076;13.722;2023-02-15T05:51:08;0.00;99.90
48264;DHT22;34086;51.076;13.722;2023-02-15T05:52:09;0.00;99.90
48264;DHT22;34086;51.076;13.722;2023-02-15T05:53:10;0.00;99.90
48264;DHT22;34086;51.076;13.722;2023-02-15T05:54:11;0.00;99.90
48264;DHT22;34086;51.076;13.722;2023-02-15T05:55:11;0.10;99.90
48264;DHT22;34086;51.076;13.722;2023-02-15T05:56:12;0.10;99.90
48264;DHT22;34086;51.076;13.722;2023-02-15T05:57:13;0.20;99.90
48264;DHT22;34086;51.076;13.722;2023-02-15T05:58:14;0.20;99.90
48264;DHT22;34086;51.076;13.722;2023-02-15T05:59:14;0.20;99.90
48264;DHT22;34086;51.076;13.722;2023-02-15T06:00:15;0.20;99.90
48264;DHT22;34086;51.076;13.722;2023-02-15T06:01:18;0.30;99.90
48264;DHT22;34086;51.076;13.722;2023-02-15T06:02:19;0.30;99.90
48264;DHT22;34086;51.076;13.722;2023-02-15T06:03:19;0.30;99.90
48264;DHT22;34086;51.076;13.722;2023-02-15T06:04:20;0.30;99.90
48264;DHT22;34086;51.076;13.722;2023-02-15T06:05:21;0.30;99.90
48264;DHT22;34086;51.076;13.722;2023-02-15T06:06:22;0.40;99.90
48264;DHT22;34086;51.076;13.722;2023-02-15T06:07:22;0.40;99.90
48264;DHT22;34086;51.076;13.722;2023-02-15T06:08:23;0.40;99.90
48264;DHT22;34086;51.076;13.722;2023-02-15T06:09:23;0.40;99.90
48264;DHT22;34086;51.076;13.722;2023-02-15T06:10:24;0.40;99.90
48264;DHT22;34086;51.076;13.722;2023-02-15T06:11:24;0.40;99.90
48264;DHT22;34086;51.076;13.722;2023-02-15T06:12:25;0.40;99.90
48264;DHT22;34086;51.076;13.722;2023-02-15T06:13:26;0.40;99.90
48264;DHT22;34086;51.076;13.722;2023-02-15T06:14:27;0.40;99.90
48264;DHT22;34086;51.076;13.722;2023-02-15T06:15:27;0.50;99.90
48264;DHT22;34086;51.076;13.722;2023-02-15T06:16:28;0.50;99.90
48264;DHT22;34086;51.076;13.722;2023-02-15T06:17:28;0.50;99.90
48264;DHT22;34086;51.076;13.722;2023-02-15T06:18:29;0.50;99.90
48264;DHT22;34086;51.076;13.722;2023-02-15T06:19:29;0.50;99.90
48264;DHT22;34086;51.076;13.722;2023-02-15T06:20:30;0.50;99.90
48264;DHT22;34086;51.076;13.722;2023-02-15T06:21:31;0.50;99.90
48264;DHT22;34086;51.076;13.722;2023-02-15T06:22:31;0.50;99.90
48264;DHT22;34086;51.076;13.722;2023-02-15T06:23:32;0.50;99.90
48264;DHT22;34086;51.076;13.722;2023-02-15T06:24:32;0.50;99.90
48264;DHT22;34086;51.076;13.722;2023-02-15T06:25:33;0.50;99.90
48264;DHT22;34086;51.076;13.722;2023-02-15T06:26:34;0.50;99.90
48264;DHT22;34086;51.076;13.722;2023-02-15T06:27:34;0.50;99.90
48264;DHT22;34086;51.076;13.722;2023-02-15T06:28:35;0.60;99.90
48264;DHT22;34086;51.076;13.722;2023-02-15T06:29:37;0.60;99.90
48264;DHT22;34086;51.076;13.722;2023-02-15T06:30:38;0.50;99.90
48264;DHT22;34086;51.076;13.722;2023-02-15T06:31:39;0.60;99.90
48264;DHT22;34086;51.076;13.722;2023-02-15T06:32:39;0.60;99.90
48264;DHT22;34086;51.076;13.722;2023-02-15T06:33:40;0.60;99.90
48264;DHT22;34086;51.076;13.722;2023-02-15T06:34:41;0.60;99.90
48264;DHT22;34086;51.076;13.722;2023-02-15T06:35:42;0.60;99.90
48264;DHT22;34086;51.076;13.722;2023-02-15T06:36:42;0.60;99.90
48264;DHT22;34086;51.076;13.722;2023-02-15T06:37:45;0.60;99.90
48264;DHT22;34086;51.076;13.722;2023-02-15T06:38:46;0.70;99.90
48264;DHT22;34086;51.076;13.722;2023-02-15T06:39:47;0.60;99.90
48264;DHT22;34086;51.076;13.722;2023-02-15T06:40:48;0.70;99.90
48264;DHT22;34086;51.076;13.722;2023-02-15T06:41:48;0.60;99.90
48264;DHT22;34086;51.076;13.722;2023-02-15T06:42:49;0.60;99.90
48264;DHT22;34086;51.076;13.722;2023-02-15T06:43:49;0.70;99.90
48264;DHT22;34086;51.076;13.722;2023-02-15T06:44:50;0.70;99.90
48264;DHT22;34086;51.076;13.722;2023-02-15T06:45:51;0.70;99.90
48264;DHT22;34086;51.076;13.722;2023-02-15T06:46:51;0.70;99.90
48264;DHT22;34086;51.076;13.722;2023-02-15T06:47:52;0.70;99.90
48264;DHT22;34086;51.076;13.722;2023-02-15T06:48:53;0.70;99.90
48264;DHT22;34086;51.076;13.722;2023-02-15T06:49:53;0.70;99.90
48264;DHT22;34086;51.076;13.722;2023-02-15T06:50:54;0.70;99.90
48264;DHT22;34086;51.076;13.722;2023-02-15T06:51:54;0.70;99.90
48264;DHT22;34086;51.076;13.722;2023-02-15T06:52:56;0.70;99.90
48264;DHT22;34086;51.076;13.722;2023-02-15T06:53:57;0.80;99.90
48264;DHT22;34086;51.076;13.722;2023-02-15T06:54:57;0.80;99.90
48264;DHT22;34086;51.076;13.722;2023-02-15T06:56:06;0.80;99.90
48264;DHT22;34086;51.076;13.722;2023-02-15T06:57:09;0.80;99.90
48264;DHT22;34086;51.076;13.722;2023-02-15T06:58:09;0.80;99.90
48264;DHT22;34086;51.076;13.722;2023-02-15T06:59:10;0.80;99.90
48264;DHT22;34086;51.076;13.722;2023-02-15T07:00:11;0.80;99.90
48264;DHT22;34086;51.076;13.722;2023-02-15T07:01:12;0.80;99.90
48264;DHT22;34086;51.076;13.722;2023-02-15T07:02:13;0.80;99.90
48264;DHT22;34086;51.076;13.722;2023-02-15T07:03:13;0.80;99.90
48264;DHT22;34086;51.076;13.722;2023-02-15T07:04:15;0.90;99.90
48264;DHT22;34086;51.076;13.722;2023-02-15T07:05:16;0.90;99.90
48264;DHT22;34086;51.076;13.722;2023-02-15T07:06:16;0.90;99.90
48264;DHT22;34086;51.076;13.722;2023-02-15T07:07:17;0.90;99.90